Time;durP1;ratioP1;P1;durP2;ratioP2;P2;SDS_P1;SDS_P2;PMS_P1;PMS_P2;Temp;Humidity;BMP_temperature;BMP_pressure;BME280_temperature;BME280_humidity;BME280_pressure;Samples;Min_cycle;Max_cycle;Signal;HPM_P1;HPM_P2
2021/08/05 00:01:07;;;;;;;6.33;5.73;;;;;;;14.71;100.00;100380.22;5020931;28;20672;-74
2021/08/05 00:03:33;;;;;;;6.90;6.20;;;;;;;14.75;100.00;100377.38;5021581;28;20209;-74
2021/08/05 00:06:01;;;;;;;6.87;6.00;;;;;;;14.72;100.00;100374.91;5005031;28;20512;-72
2021/08/05 00:08:27;;;;;;;7.97;6.50;;;;;;;14.71;100.00;100367.94;5023994;28;20219;-74
2021/08/05 00:10:54;;;;;;;7.10;6.40;;;;;;;14.65;100.00;100370.00;5027527;28;20579;-74
2021/08/05 00:13:20;;;;;;;7.87;5.97;;;;;;;14.63;100.00;100369.25;5025577;28;20220;-72
2021/08/05 00:15:47;;;;;;;7.17;6.47;;;;;;;14.63;100.00;100366.63;5021264;28;20359;-74
2021/08/05 00:18:13;;;;;;;6.87;6.23;;;;;;;14.60;100.00;100362.38;5027364;28;20209;-74
2021/08/05 00:20:39;;;;;;;6.70;5.70;;;;;;;14.64;100.00;100363.91;5032705;28;20211;-73
2021/08/05 00:23:08;;;;;;;6.77;6.07;;;;;;;14.66;100.00;100364.69;5025956;28;20630;-73
2021/08/05 00:25:34;;;;;;;6.50;5.80;;;;;;;14.61;100.00;100358.81;5024886;28;20242;-75
2021/08/05 00:28:00;;;;;;;7.03;6.30;;;;;;;14.57;100.00;100360.69;5030960;28;20226;-74
2021/08/05 00:30:27;;;;;;;6.30;5.70;;;;;;;14.58;100.00;100354.56;5023237;28;20201;-73
2021/08/05 00:32:53;;;;;;;6.63;5.53;;;;;;;14.50;100.00;100351.41;5026388;28;20228;-74
2021/08/05 00:35:20;;;;;;;7.10;6.40;;;;;;;14.51;100.00;100355.75;5018125;28;20598;-74
2021/08/05 00:37:46;;;;;;;7.37;5.93;;;;;;;14.55;100.00;100354.69;5007902;28;20204;-75
2021/08/05 00:40:14;;;;;;;6.93;5.87;;;;;;;14.49;100.00;100349.72;5006740;28;20231;-74
2021/08/05 00:42:40;;;;;;;7.53;6.40;;;;;;;14.50;100.00;100354.03;5011617;28;20221;-74
2021/08/05 00:45:08;;;;;;;6.83;6.13;;;;;;;14.48;100.00;100355.03;5006486;28;20276;-75
2021/08/05 00:47:35;;;;;;;7.10;6.10;;;;;;;14.46;100.00;100357.75;5027569;28;20208;-74
2021/08/05 00:50:02;;;;;;;6.43;5.83;;;;;;;14.46;100.00;100362.97;5010360;28;20220;-73
2021/08/05 00:52:29;;;;;;;6.97;6.20;;;;;;;14.35;100.00;100360.00;5021327;28;20224;-74
2021/08/05 00:54:55;;;;;;;7.57;6.57;;;;;;;14.32;100.00;100355.75;5005599;28;20208;-75
2021/08/05 00:57:23;;;;;;;8.07;6.50;;;;;;;14.27;100.00;100357.72;5026679;28;20200;-73
2021/08/05 00:59:50;;;;;;;6.80;6.10;;;;;;;14.26;100.00;100349.94;5009826;28;20363;-73
2021/08/05 01:02:19;;;;;;;6.53;5.70;;;;;;;14.27;100.00;100351.66;5000712;28;20236;-74
2021/08/05 01:04:49;;;;;;;6.80;6.10;;;;;;;14.25;100.00;100350.84;5011460;28;20712;-74
2021/08/05 01:07:19;;;;;;;7.53;6.20;;;;;;;14.22;100.00;100345.75;5028793;28;20290;-74
2021/08/05 01:09:56;;;;;;;6.93;6.23;;;;;;;14.18;100.00;100347.66;5007342;28;20217;-75
2021/08/05 01:12:35;;;;;;;6.67;5.97;;;;;;;14.12;100.00;100343.53;5005342;28;20272;-74
2021/08/05 01:15:06;;;;;;;7.03;6.30;;;;;;;14.15;100.00;100337.31;5009635;28;20280;-73
2021/08/05 01:17:36;;;;;;;6.70;6.00;;;;;;;14.13;100.00;100331.28;5006149;28;20230;-75
2021/08/05 01:20:05;;;;;;;6.33;5.73;;;;;;;14.18;100.00;100332.78;5007100;28;20235;-75
2021/08/05 01:22:40;;;;;;;7.20;6.50;;;;;;;14.11;100.00;100336.59;5008830;28;20220;-73
2021/08/05 01:25:11;;;;;;;6.60;5.90;;;;;;;14.10;100.00;100329.66;5006606;28;20258;-75
2021/08/05 01:27:40;;;;;;;6.93;6.23;;;;;;;14.08;100.00;100333.28;5016074;28;20208;-74
2021/08/05 01:30:10;;;;;;;6.83;6.13;;;;;;;14.02;100.00;100327.38;5006217;28;20291;-74
2021/08/05 01:32:38;;;;;;;7.17;6.47;;;;;;;14.02;100.00;100332.63;5011864;28;20227;-73
2021/08/05 01:35:06;;;;;;;7.03;6.30;;;;;;;14.06;100.00;100330.72;5016383;28;20212;-73
2021/08/05 01:37:33;;;;;;;6.53;5.93;;;;;;;14.04;100.00;100334.34;5020114;28;20415;-74
2021/08/05 01:40:00;;;;;;;7.97;6.83;;;;;;;13.98;100.00;100331.06;5001099;28;20205;-74
2021/08/05 01:42:26;;;;;;;6.83;6.13;;;;;;;13.99;100.00;100324.06;5026593;28;20717;-74
2021/08/05 01:44:55;;;;;;;7.37;6.27;;;;;;;13.95;100.00;100330.34;5006409;28;20208;-73
2021/08/05 01:47:22;;;;;;;7.40;6.53;;;;;;;13.94;100.00;100331.28;5005121;28;20207;-74
2021/08/05 01:49:50;;;;;;;7.50;6.43;;;;;;;13.87;100.00;100329.84;5004017;28;20532;-75
2021/08/05 01:52:18;;;;;;;6.43;5.83;;;;;;;13.94;100.00;100319.00;5025452;28;20224;-74
2021/08/05 01:54:44;;;;;;;8.20;6.63;;;;;;;13.86;100.00;100317.66;5008600;28;20330;-74
2021/08/05 01:57:11;;;;;;;7.50;6.73;;;;;;;13.88;100.00;100326.28;5025545;28;20294;-74
2021/08/05 01:59:37;;;;;;;7.57;6.77;;;;;;;13.88;100.00;100321.03;5007305;28;20209;-74
2021/08/05 02:02:08;;;;;;;7.57;6.87;;;;;;;13.83;100.00;100319.50;5012500;28;20760;-73
2021/08/05 02:04:45;;;;;;;7.50;6.40;;;;;;;13.79;100.00;100315.31;5021191;28;20294;-74
2021/08/05 02:07:15;;;;;;;7.77;6.40;;;;;;;13.77;100.00;100316.28;5004379;28;20301;-75
2021/08/05 02:09:48;;;;;;;7.17;6.30;;;;;;;13.73;100.00;100320.81;5010101;28;20270;-74
2021/08/05 02:12:17;;;;;;;8.07;7.00;;;;;;;13.64;100.00;100315.97;5005945;28;20235;-73
2021/08/05 02:14:44;;;;;;;7.30;6.60;;;;;;;13.63;100.00;100317.75;5007942;28;20422;-74
2021/08/05 02:17:13;;;;;;;9.17;6.83;;;;;;;13.67;100.00;100313.22;5004847;28;20764;-74
2021/08/05 02:19:40;;;;;;;7.70;6.07;;;;;;;13.62;100.00;100312.59;5024971;28;20215;-73
2021/08/05 02:22:08;;;;;;;7.70;6.53;;;;;;;13.44;100.00;100312.47;5000530;28;20243;-73
2021/08/05 02:24:36;;;;;;;7.53;6.73;;;;;;;13.52;100.00;100313.91;5006410;28;20216;-75
2021/08/05 02:27:03;;;;;;;7.00;6.30;;;;;;;13.51;100.00;100312.19;5028761;28;20210;-73
2021/08/05 02:29:31;;;;;;;8.77;6.23;;;;;;;13.54;100.00;100315.50;5029910;28;20218;-74
2021/08/05 02:31:59;;;;;;;7.70;6.77;;;;;;;13.43;100.00;100320.38;5025540;28;20228;-75
2021/08/05 02:34:28;;;;;;;7.90;6.63;;;;;;;13.35;100.00;100310.25;5008102;28;20206;-73
2021/08/05 02:36:56;;;;;;;7.70;6.67;;;;;;;13.36;100.00;100317.16;5009908;28;20200;-74
2021/08/05 02:39:26;;;;;;;6.97;6.23;;;;;;;13.30;100.00;100317.41;5008121;28;20618;-74
2021/08/05 02:41:53;;;;;;;7.50;6.70;;;;;;;13.20;100.00;100318.72;5005978;28;20637;-74
2021/08/05 02:44:20;;;;;;;7.80;6.23;;;;;;;13.18;100.00;100312.69;5013975;28;20342;-73
2021/08/05 02:46:48;;;;;;;7.40;6.53;;;;;;;13.11;100.00;100313.88;4992397;28;20215;-72
2021/08/05 02:49:16;;;;;;;8.13;6.57;;;;;;;13.23;100.00;100310.72;5005558;28;20216;-74
2021/08/05 02:51:45;;;;;;;7.47;6.67;;;;;;;13.09;100.00;100316.53;5025816;28;20716;-74
2021/08/05 02:54:12;;;;;;;7.13;6.43;;;;;;;13.07;100.00;100321.00;5001853;28;20600;-75
2021/08/05 02:56:40;;;;;;;7.07;6.37;;;;;;;13.13;100.00;100314.66;5003796;28;20206;-72
2021/08/05 02:59:07;;;;;;;7.43;6.60;;;;;;;13.15;100.00;100310.19;5004467;28;20207;-74
2021/08/05 03:01:34;;;;;;;7.50;6.70;;;;;;;13.18;100.00;100304.84;5002383;28;20710;-74
2021/08/05 03:04:01;;;;;;;7.33;6.63;;;;;;;13.15;100.00;100302.34;5020320;28;20198;-74
2021/08/05 03:06:28;;;;;;;7.30;6.60;;;;;;;13.03;100.00;100301.06;5028630;28;20401;-74
2021/08/05 03:08:56;;;;;;;7.70;6.90;;;;;;;13.08;100.00;100307.81;5023347;28;20222;-74
2021/08/05 03:11:22;;;;;;;8.57;6.93;;;;;;;13.00;100.00;100298.59;5017106;28;20300;-74
2021/08/05 03:13:49;;;;;;;7.90;7.10;;;;;;;13.10;100.00;100302.53;5017794;28;20222;-74
2021/08/05 03:16:16;;;;;;;8.30;7.50;;;;;;;13.12;100.00;100300.72;5019442;28;20874;-74
2021/08/05 03:18:43;;;;;;;8.70;7.20;;;;;;;13.09;100.00;100300.84;5023744;28;20229;-74
2021/08/05 03:21:10;;;;;;;8.23;7.37;;;;;;;13.01;100.00;100305.53;5020124;28;20266;-74
2021/08/05 03:23:36;;;;;;;9.10;8.00;;;;;;;13.06;100.00;100309.66;5021781;28;20275;-74
2021/08/05 03:26:04;;;;;;;8.67;7.27;;;;;;;13.07;100.00;100306.13;4996351;28;20205;-73
2021/08/05 03:28:30;;;;;;;8.70;7.60;;;;;;;13.15;100.00;100312.81;5020513;28;20197;-74
2021/08/05 03:30:57;;;;;;;9.37;7.53;;;;;;;13.00;100.00;100306.47;5020210;28;20508;-73
2021/08/05 03:33:24;;;;;;;8.20;7.27;;;;;;;13.05;100.00;100297.50;5026552;28;20263;-74
2021/08/05 03:35:50;;;;;;;8.67;7.70;;;;;;;13.02;100.00;100302.00;5019926;28;20214;-74
2021/08/05 03:38:16;;;;;;;9.90;8.10;;;;;;;13.00;100.00;100293.38;5019859;28;20198;-74
2021/08/05 03:40:43;;;;;;;9.47;8.47;;;;;;;12.96;100.00;100297.84;5020266;28;20240;-74
2021/08/05 03:43:11;;;;;;;8.93;8.03;;;;;;;12.92;100.00;100298.91;5020048;28;20222;-73
2021/08/05 03:45:37;;;;;;;9.50;8.23;;;;;;;13.03;100.00;100285.38;5023372;28;20215;-71
2021/08/05 03:48:04;;;;;;;10.47;8.37;;;;;;;13.04;100.00;100287.94;5000669;28;20406;-74
2021/08/05 03:50:31;;;;;;;9.80;8.73;;;;;;;13.13;100.00;100281.47;5017297;28;20668;-74
2021/08/05 03:52:57;;;;;;;9.67;8.27;;;;;;;13.23;100.00;100290.63;5025620;28;20227;-74
2021/08/05 03:55:24;;;;;;;10.10;9.00;;;;;;;13.21;100.00;100287.22;5020127;28;20590;-72
2021/08/05 03:57:50;;;;;;;9.77;8.47;;;;;;;13.17;100.00;100288.25;5022783;28;20206;-74
2021/08/05 04:00:19;;;;;;;9.40;8.40;;;;;;;13.26;100.00;100285.28;5021299;28;20231;-74
2021/08/05 04:02:45;;;;;;;9.50;8.50;;;;;;;13.28;100.00;100279.97;5009865;28;20306;-74
2021/08/05 04:05:12;;;;;;;10.10;8.73;;;;;;;13.29;100.00;100281.66;5018029;28;20793;-74
2021/08/05 04:07:38;;;;;;;10.03;8.80;;;;;;;13.40;100.00;100283.84;5005786;28;20204;-73
2021/08/05 04:10:06;;;;;;;10.40;8.87;;;;;;;13.36;100.00;100284.91;5018854;28;20465;-73
2021/08/05 04:12:32;;;;;;;13.60;8.77;;;;;;;13.39;100.00;100288.25;5022979;28;20544;-73
2021/08/05 04:14:59;;;;;;;10.53;9.07;;;;;;;13.47;100.00;100287.88;5020538;28;20206;-74
2021/08/05 04:17:26;;;;;;;12.27;9.70;;;;;;;13.46;100.00;100286.22;5019790;28;20203;-74
2021/08/05 04:19:53;;;;;;;8.97;8.07;;;;;;;13.50;100.00;100285.16;5023054;28;20275;-74
2021/08/05 04:22:19;;;;;;;9.23;8.27;;;;;;;13.58;100.00;100277.81;5025242;28;20226;-72
2021/08/05 04:24:46;;;;;;;10.00;8.30;;;;;;;13.68;100.00;100277.41;5018906;28;20211;-74
2021/08/05 04:27:12;;;;;;;9.00;8.10;;;;;;;13.64;100.00;100279.31;5002309;28;20204;-74
2021/08/05 04:29:38;;;;;;;9.60;8.50;;;;;;;13.64;100.00;100285.38;5021190;28;20231;-74
2021/08/05 04:32:05;;;;;;;9.37;8.40;;;;;;;13.73;100.00;100278.88;5022338;28;20530;-74
2021/08/05 04:34:33;;;;;;;9.77;8.77;;;;;;;13.76;100.00;100278.75;5020109;28;20203;-73
2021/08/05 04:36:59;;;;;;;11.00;8.10;;;;;;;13.80;100.00;100269.84;5020227;28;20203;-74
2021/08/05 04:39:27;;;;;;;9.13;7.67;;;;;;;13.86;100.00;100271.34;5021140;28;20538;-73
2021/08/05 04:41:54;;;;;;;12.53;9.00;;;;;;;13.94;100.00;100269.22;5021857;28;20224;-74
2021/08/05 04:44:20;;;;;;;10.23;8.53;;;;;;;14.06;100.00;100273.03;5022550;28;20210;-73
2021/08/05 04:46:46;;;;;;;10.33;8.97;;;;;;;14.20;100.00;100272.41;5018257;28;20550;-73
2021/08/05 04:49:13;;;;;;;10.23;9.03;;;;;;;14.24;100.00;100265.25;5020200;28;20245;-74
2021/08/05 04:51:41;;;;;;;13.10;10.03;;;;;;;14.26;100.00;100266.84;5026088;28;20219;-74
2021/08/05 04:54:07;;;;;;;11.03;9.90;;;;;;;14.32;100.00;100257.88;5012192;28;20559;-74
2021/08/05 04:56:34;;;;;;;10.47;9.37;;;;;;;14.34;100.00;100256.03;5022838;28;20204;-73
2021/08/05 04:59:00;;;;;;;11.77;10.20;;;;;;;14.44;100.00;100256.41;5026657;28;20208;-74
2021/08/05 05:01:27;;;;;;;10.87;9.23;;;;;;;14.58;100.00;100254.88;5020540;28;20211;-74
2021/08/05 05:03:54;;;;;;;11.17;9.40;;;;;;;14.64;100.00;100258.97;5025506;28;20728;-74
2021/08/05 05:06:20;;;;;;;10.90;9.47;;;;;;;14.66;100.00;100259.75;5024246;28;20748;-74
2021/08/05 05:08:48;;;;;;;12.00;9.70;;;;;;;14.73;100.00;100253.25;5023732;28;20674;-76
2021/08/05 05:11:14;;;;;;;10.97;9.47;;;;;;;14.82;100.00;100253.75;5025304;28;20234;-73
2021/08/05 05:13:41;;;;;;;10.70;8.97;;;;;;;14.92;100.00;100255.00;5025911;28;20215;-74
2021/08/05 05:16:07;;;;;;;10.90;9.77;;;;;;;14.98;100.00;100252.03;5023021;28;20564;-74
2021/08/05 05:18:33;;;;;;;13.50;10.43;;;;;;;15.05;100.00;100248.19;5021042;28;20607;-74
2021/08/05 05:21:00;;;;;;;12.47;9.90;;;;;;;15.11;100.00;100247.88;5022965;28;20199;-75
2021/08/05 05:23:26;;;;;;;11.17;9.20;;;;;;;15.20;100.00;100248.34;5024194;28;20581;-75
2021/08/05 05:25:54;;;;;;;12.57;8.77;;;;;;;15.28;100.00;100252.25;5020205;28;20213;-73
2021/08/05 05:28:20;;;;;;;10.17;9.07;;;;;;;15.37;100.00;100253.56;5024627;28;20204;-74
2021/08/05 05:30:47;;;;;;;11.80;9.13;;;;;;;15.44;100.00;100246.22;5022877;28;20220;-73
2021/08/05 05:33:13;;;;;;;10.13;9.03;;;;;;;15.45;100.00;100248.75;5022657;28;20228;-74
2021/08/05 05:35:40;;;;;;;9.43;8.43;;;;;;;15.56;100.00;100244.72;5022062;28;20207;-74
2021/08/05 05:38:08;;;;;;;10.23;9.13;;;;;;;15.55;100.00;100240.38;5020960;28;20208;-74
2021/08/05 05:40:34;;;;;;;10.67;9.07;;;;;;;15.60;100.00;100241.84;5024164;28;20188;-75
2021/08/05 05:43:02;;;;;;;9.20;8.07;;;;;;;15.73;100.00;100243.84;5024587;28;20227;-75
2021/08/05 05:45:30;;;;;;;10.07;8.57;;;;;;;15.79;100.00;100243.53;5027422;28;20214;-75
2021/08/05 05:47:57;;;;;;;11.33;8.90;;;;;;;15.86;100.00;100245.72;5021140;28;20244;-74
2021/08/05 05:50:24;;;;;;;10.23;8.40;;;;;;;15.93;100.00;100245.41;5022727;28;20692;-75
2021/08/05 05:52:50;;;;;;;9.70;7.77;;;;;;;15.97;100.00;100247.78;5022259;28;20835;-74
2021/08/05 05:55:17;;;;;;;9.03;8.10;;;;;;;16.02;100.00;100247.53;5022691;28;20204;-74
2021/08/05 05:57:44;;;;;;;9.03;7.13;;;;;;;16.10;100.00;100245.34;5019987;28;20640;-75
2021/08/05 06:00:13;;;;;;;9.90;6.97;;;;;;;16.22;100.00;100254.34;5026351;28;20200;-74
2021/08/05 06:02:40;;;;;;;9.07;7.70;;;;;;;16.35;99.68;100250.06;5019354;28;20227;-74
2021/08/05 06:05:07;;;;;;;8.40;7.33;;;;;;;16.37;98.20;100244.72;5020434;28;20196;-75
2021/08/05 06:07:42;;;;;;;9.97;7.80;;;;;;;16.43;97.67;100249.66;5024531;28;20261;-74
2021/08/05 06:10:10;;;;;;;8.43;7.40;;;;;;;16.53;97.37;100257.84;5025049;28;20211;-73
2021/08/05 06:12:36;;;;;;;7.83;7.03;;;;;;;16.66;97.80;100250.97;5025927;28;20228;-73
2021/08/05 06:15:03;;;;;;;8.83;7.80;;;;;;;16.69;95.73;100256.03;5028536;28;20606;-75
2021/08/05 06:17:31;;;;;;;10.13;7.27;;;;;;;16.75;95.42;100257.50;5019962;28;20573;-74
2021/08/05 06:19:57;;;;;;;8.00;6.83;;;;;;;16.85;94.94;100250.78;5024124;28;20211;-74
2021/08/05 06:22:24;;;;;;;8.30;7.10;;;;;;;16.93;94.20;100256.44;5029587;28;20220;-74
2021/08/05 06:24:50;;;;;;;8.03;7.00;;;;;;;17.03;93.97;100248.88;5024338;28;20295;-75
2021/08/05 06:27:16;;;;;;;9.40;6.57;;;;;;;17.11;93.83;100258.94;5029927;28;20687;-75
2021/08/05 06:29:43;;;;;;;8.10;6.63;;;;;;;17.19;93.19;100254.91;5020446;28;20885;-75
2021/08/05 06:32:09;;;;;;;7.13;6.37;;;;;;;17.19;91.96;100260.19;5030449;28;20216;-74
2021/08/05 06:34:37;;;;;;;7.27;6.57;;;;;;;17.33;92.78;100263.78;5021209;28;20208;-74
2021/08/05 06:37:04;;;;;;;7.27;6.47;;;;;;;17.38;91.44;100264.34;5023802;28;20200;-74
2021/08/05 06:39:30;;;;;;;7.10;6.33;;;;;;;17.40;90.71;100265.09;5020682;28;20210;-75
2021/08/05 06:41:56;;;;;;;7.53;6.13;;;;;;;17.39;89.70;100264.25;5021750;28;20216;-73
2021/08/05 06:44:23;;;;;;;7.07;5.73;;;;;;;17.48;90.19;100270.75;5022776;28;20270;-74
2021/08/05 06:46:50;;;;;;;6.60;5.80;;;;;;;17.61;89.02;100276.13;5020898;28;20669;-74
2021/08/05 06:49:16;;;;;;;6.47;5.67;;;;;;;17.71;89.05;100273.75;5020074;28;20214;-75
2021/08/05 06:51:44;;;;;;;6.83;6.13;;;;;;;17.78;88.04;100275.94;5024385;28;20227;-75
2021/08/05 06:54:10;;;;;;;6.43;5.50;;;;;;;17.79;87.20;100287.34;5023240;28;20678;-74
2021/08/05 06:56:37;;;;;;;6.33;5.70;;;;;;;17.79;88.26;100275.00;5024990;28;20198;-75
2021/08/05 06:59:03;;;;;;;6.03;5.43;;;;;;;17.78;87.52;100280.34;5022381;28;20206;-74
2021/08/05 07:01:30;;;;;;;5.50;5.00;;;;;;;17.85;87.16;100281.66;5004407;28;20220;-75
2021/08/05 07:03:58;;;;;;;6.47;5.37;;;;;;;17.90;86.41;100284.06;5002318;28;20215;-74
2021/08/05 07:06:24;;;;;;;7.17;5.47;;;;;;;18.07;85.59;100285.66;5022972;28;20689;-73
2021/08/05 07:08:52;;;;;;;6.93;4.87;;;;;;;18.19;84.98;100282.25;5023275;28;20200;-75
2021/08/05 07:11:18;;;;;;;6.50;4.83;;;;;;;18.35;85.90;100280.31;5027350;28;20219;-75
2021/08/05 07:13:45;;;;;;;5.60;5.07;;;;;;;18.46;83.85;100286.69;5018754;28;20749;-74
2021/08/05 07:16:12;;;;;;;6.10;5.20;;;;;;;18.53;83.10;100278.28;5016378;28;20212;-74
2021/08/05 07:18:39;;;;;;;7.70;5.80;;;;;;;18.59;82.40;100277.06;5019138;28;20236;-74
2021/08/05 07:21:06;;;;;;;5.20;4.70;;;;;;;18.73;83.09;100271.72;5015703;28;20209;-74
2021/08/05 07:23:32;;;;;;;5.03;4.53;;;;;;;18.94;82.25;100273.03;5019187;28;20691;-75
2021/08/05 07:26:00;;;;;;;6.27;5.20;;;;;;;19.11;81.49;100272.75;5025965;28;20691;-75
2021/08/05 07:28:28;;;;;;;7.77;5.00;;;;;;;19.23;79.95;100274.59;5018045;28;20226;-75
2021/08/05 07:30:54;;;;;;;7.77;4.90;;;;;;;19.23;78.24;100276.38;5024486;28;20590;-75
2021/08/05 07:33:21;;;;;;;4.60;4.20;;;;;;;19.26;78.25;100271.72;5019283;28;20316;-74
2021/08/05 07:35:47;;;;;;;4.70;4.10;;;;;;;19.31;78.29;100274.03;5021386;28;20210;-74
2021/08/05 07:38:13;;;;;;;8.60;5.00;;;;;;;19.55;77.33;100265.41;5016534;28;20212;-73
2021/08/05 07:40:40;;;;;;;5.00;3.90;;;;;;;19.75;75.89;100271.97;5021727;28;20200;-74
2021/08/05 07:43:08;;;;;;;4.83;3.70;;;;;;;19.75;75.61;100275.47;5022710;28;20891;-75
2021/08/05 07:45:34;;;;;;;4.50;3.97;;;;;;;19.77;75.73;100267.41;5021472;28;20228;-74
2021/08/05 07:48:01;;;;;;;5.93;3.90;;;;;;;19.74;75.08;100265.00;5019729;28;20618;-75
2021/08/05 07:50:27;;;;;;;5.27;4.13;;;;;;;19.81;75.70;100258.31;4994962;28;20235;-75
2021/08/05 07:52:54;;;;;;;4.10;3.70;;;;;;;19.89;75.75;100263.88;5022994;28;20229;-74
2021/08/05 07:55:20;;;;;;;5.03;3.60;;;;;;;19.98;75.88;100262.38;5017970;28;20219;-74
2021/08/05 07:57:47;;;;;;;4.70;3.40;;;;;;;20.10;76.29;100255.38;5022920;28;20208;-73
2021/08/05 08:00:15;;;;;;;4.37;3.47;;;;;;;20.20;72.77;100265.19;5016356;28;20209;-75
2021/08/05 08:02:42;;;;;;;4.80;3.90;;;;;;;20.23;72.96;100264.13;5021444;28;20675;-75
2021/08/05 08:05:11;;;;;;;4.00;3.70;;;;;;;20.19;71.99;100258.22;5017441;28;20203;-74
2021/08/05 08:07:37;;;;;;;3.63;3.30;;;;;;;20.28;72.97;100256.72;5023498;28;20200;-73
2021/08/05 08:10:05;;;;;;;4.13;3.50;;;;;;;20.22;72.35;100251.84;5018376;28;20203;-75
2021/08/05 08:12:32;;;;;;;3.50;3.00;;;;;;;20.32;72.37;100252.03;5022741;28;20315;-74
2021/08/05 08:14:58;;;;;;;4.23;3.80;;;;;;;20.30;72.06;100251.28;5022953;28;20199;-75
2021/08/05 08:17:26;;;;;;;3.47;3.10;;;;;;;20.39;72.03;100250.63;5023561;28;20204;-75
2021/08/05 08:19:53;;;;;;;3.97;3.50;;;;;;;20.49;71.67;100245.50;5019615;28;20409;-74
2021/08/05 08:22:19;;;;;;;4.60;3.60;;;;;;;20.52;71.32;100239.97;5019845;28;20232;-73
2021/08/05 08:24:45;;;;;;;5.03;3.63;;;;;;;20.61;71.16;100245.47;5019222;28;20203;-74
2021/08/05 08:27:12;;;;;;;4.03;3.30;;;;;;;20.70;69.39;100241.31;5022959;28;20666;-74
2021/08/05 08:29:39;;;;;;;3.80;3.00;;;;;;;20.68;71.00;100240.56;5028715;28;20195;-74
2021/08/05 08:32:06;;;;;;;3.77;3.10;;;;;;;20.89;70.32;100238.09;5024279;28;20262;-74
2021/08/05 08:34:34;;;;;;;3.63;3.10;;;;;;;21.14;69.72;100230.94;5027045;28;20212;-74
2021/08/05 08:37:00;;;;;;;4.57;3.07;;;;;;;21.43;68.96;100230.50;5029136;28;20203;-74
2021/08/05 08:39:27;;;;;;;4.17;2.80;;;;;;;21.65;67.01;100237.63;5027615;28;20188;-73
2021/08/05 08:41:53;;;;;;;3.50;2.90;;;;;;;21.63;67.24;100236.91;5021841;28;20315;-73
2021/08/05 08:44:19;;;;;;;3.27;2.97;;;;;;;21.71;66.30;100230.03;5025710;28;20575;-74
2021/08/05 08:46:48;;;;;;;3.07;2.77;;;;;;;21.85;65.94;100231.59;5019560;28;20208;-74
2021/08/05 08:49:15;;;;;;;2.80;2.50;;;;;;;21.91;63.53;100233.75;5021047;28;20279;-73
2021/08/05 08:51:45;;;;;;;3.97;2.83;;;;;;;21.98;63.99;100228.81;5025043;28;20338;-73
2021/08/05 08:54:12;;;;;;;3.67;2.70;;;;;;;22.18;64.74;100226.34;5035151;28;20213;-73
2021/08/05 08:56:40;;;;;;;5.00;2.70;;;;;;;22.29;63.49;100227.19;5022449;28;20200;-74
2021/08/05 08:59:07;;;;;;;2.87;2.60;;;;;;;22.35;64.32;100227.66;5024282;28;20204;-74
2021/08/05 09:01:39;;;;;;;4.53;3.03;;;;;;;22.44;64.52;100225.13;5018380;28;20228;-74
2021/08/05 09:04:06;;;;;;;2.75;2.53;;;;;;;22.45;63.32;100224.13;5022727;28;20212;-74
2021/08/05 09:06:33;;;;;;;3.45;2.40;;;;;;;22.19;62.25;100220.91;5020310;28;20692;-74
2021/08/05 09:09:00;;;;;;;2.60;2.38;;;;;;;22.32;63.45;100220.78;5026748;28;20216;-74
2021/08/05 09:11:27;;;;;;;3.20;2.90;;;;;;;22.23;62.14;100218.84;5022202;28;20246;-74
2021/08/05 09:13:53;;;;;;;3.80;2.50;;;;;;;22.20;62.26;100216.44;5022704;28;20500;-74
2021/08/05 09:16:25;;;;;;;3.45;2.22;;;;;;;22.40;61.53;100223.66;5020718;28;20193;-74
2021/08/05 09:18:52;;;;;;;4.32;2.63;;;;;;;22.64;60.06;100230.59;5020147;28;20200;-73
2021/08/05 09:21:21;;;;;;;2.53;2.33;;;;;;;22.55;60.14;100231.31;5021731;28;20199;-75
2021/08/05 09:23:56;;;;;;;2.40;2.20;;;;;;;22.45;60.64;100223.28;5019591;28;20266;-74
2021/08/05 09:26:37;;;;;;;3.00;2.70;;;;;;;22.74;58.94;100228.00;5017473;28;20623;-74
2021/08/05 09:29:09;;;;;;;3.45;2.72;;;;;;;22.61;60.69;100226.34;5010940;28;20199;-74
2021/08/05 09:31:37;;;;;;;2.50;2.20;;;;;;;22.46;59.34;100220.50;5035677;28;20219;-73
2021/08/05 09:34:06;;;;;;;2.50;2.30;;;;;;;22.59;60.95;100215.03;5017042;28;20574;-74
2021/08/05 09:36:33;;;;;;;3.05;2.72;;;;;;;22.67;60.03;100214.38;5011191;28;20560;-74
2021/08/05 09:39:00;;;;;;;3.25;2.40;;;;;;;22.55;59.79;100220.69;5018681;28;20773;-73
2021/08/05 09:41:27;;;;;;;3.13;2.80;;;;;;;22.39;60.32;100213.16;5019826;28;20692;-73
2021/08/05 09:44:02;;;;;;;2.65;2.20;;;;;;;22.27;60.57;100207.91;5016792;28;20467;-74
2021/08/05 09:46:31;;;;;;;2.33;2.13;;;;;;;22.36;60.95;100210.78;5011664;28;20200;-74
2021/08/05 09:48:57;;;;;;;2.30;2.10;;;;;;;22.60;61.39;100199.91;5018462;28;20263;-75
2021/08/05 09:51:23;;;;;;;3.47;2.72;;;;;;;22.71;60.90;100199.00;5019735;28;20220;-74
2021/08/05 09:53:54;;;;;;;2.30;2.10;;;;;;;22.85;60.20;100196.88;5019011;28;20196;-74
2021/08/05 09:56:21;;;;;;;2.53;2.30;;;;;;;23.02;60.16;100189.28;5019319;28;20243;-74
2021/08/05 09:58:47;;;;;;;2.35;2.15;;;;;;;23.10;59.29;100189.50;5021816;28;20196;-74
2021/08/05 10:01:16;;;;;;;2.20;2.00;;;;;;;23.05;58.73;100186.41;5025879;28;20210;-73
2021/08/05 10:03:42;;;;;;;2.05;1.77;;;;;;;22.99;58.17;100195.72;5019498;28;20689;-73
2021/08/05 10:06:09;;;;;;;2.55;2.03;;;;;;;22.93;58.04;100185.59;5019168;28;20586;-74
2021/08/05 10:08:37;;;;;;;2.25;1.90;;;;;;;22.89;56.68;100194.81;5023843;28;20661;-74
2021/08/05 10:11:05;;;;;;;1.88;1.77;;;;;;;22.98;57.94;100190.53;5001150;28;20322;-73
2021/08/05 10:13:34;;;;;;;1.70;1.60;;;;;;;23.05;58.08;100194.38;5023902;28;20756;-74
2021/08/05 10:16:01;;;;;;;2.60;2.17;;;;;;;23.23;57.57;100191.94;5012553;28;20550;-73
2021/08/05 10:18:31;;;;;;;1.92;1.75;;;;;;;23.34;57.91;100185.69;5016132;28;20205;-74
2021/08/05 10:21:02;;;;;;;2.72;1.60;;;;;;;23.50;57.40;100186.06;5018491;28;20211;-75
2021/08/05 10:23:29;;;;;;;2.17;1.70;;;;;;;23.71;56.54;100180.69;5017270;28;20327;-74
2021/08/05 10:25:58;;;;;;;3.10;1.63;;;;;;;23.47;53.81;100178.34;5019302;28;20638;-74
2021/08/05 10:28:26;;;;;;;1.70;1.60;;;;;;;23.48;55.92;100173.84;5028799;28;20204;-75
2021/08/05 10:30:53;;;;;;;2.05;1.80;;;;;;;23.70;53.84;100184.31;5020826;28;20199;-75
2021/08/05 10:33:20;;;;;;;2.00;1.77;;;;;;;23.49;53.48;100181.72;5016260;28;20322;-75
2021/08/05 10:35:49;;;;;;;3.13;1.83;;;;;;;23.64;54.35;100166.25;5021936;28;20230;-72
2021/08/05 10:38:17;;;;;;;1.75;1.55;;;;;;;23.74;55.03;100163.59;5028478;28;20533;-73
2021/08/05 10:40:45;;;;;;;1.88;1.67;;;;;;;23.90;54.63;100166.56;5019450;28;20621;-73
2021/08/05 10:43:13;;;;;;;2.30;1.70;;;;;;;23.88;54.25;100171.19;5024651;28;20239;-75
2021/08/05 10:45:40;;;;;;;3.30;1.50;;;;;;;23.78;52.48;100172.97;5016776;28;20258;-73
2021/08/05 10:48:07;;;;;;;2.00;1.70;;;;;;;23.61;52.56;100170.00;5024063;28;20227;-72
2021/08/05 10:50:40;;;;;;;2.25;1.60;;;;;;;23.73;53.90;100167.25;5016446;28;20204;-72
2021/08/05 10:53:13;;;;;;;1.67;1.58;;;;;;;23.83;53.59;100162.78;5019138;28;20272;-73
2021/08/05 10:55:40;;;;;;;2.80;1.55;;;;;;;23.80;53.10;100158.59;5023787;28;20211;-74
2021/08/05 10:58:12;;;;;;;1.73;1.40;;;;;;;23.80;53.67;100152.41;5016177;28;20712;-74
2021/08/05 11:01:01;;;;;;;1.45;1.35;;;;;;;23.78;53.69;100147.22;5018652;28;20205;-74
2021/08/05 11:03:40;;;;;;;1.70;1.40;;;;;;;23.86;52.85;100149.22;5020043;28;20235;-75
2021/08/05 11:06:08;;;;;;;1.52;1.42;;;;;;;23.80;52.24;100142.63;5024697;28;20303;-72
2021/08/05 11:08:36;;;;;;;1.70;1.50;;;;;;;23.89;52.92;100143.63;5018875;28;20229;-74
2021/08/05 11:11:33;;;;;;;1.40;1.30;;;;;;;23.81;52.14;100135.47;5015949;28;20213;-72
2021/08/05 11:14:38;;;;;;;1.45;1.35;;;;;;;23.90;52.89;100144.44;5008890;28;20231;-75
2021/08/05 11:17:06;;;;;;;1.75;1.58;;;;;;;23.88;52.44;100139.25;5017254;28;20218;-75
2021/08/05 11:19:34;;;;;;;2.25;1.70;;;;;;;24.04;52.44;100135.22;5018006;28;20200;-74
2021/08/05 11:22:50;;;;;;;1.70;1.60;;;;;;;24.35;54.78;100127.94;4993947;28;20661;-74